createdAt,value
2022-08-26T00:02:20.505Z,89.83
2022-08-26T00:04:49.870Z,90.64
2022-08-26T00:07:19.411Z,91.16
2022-08-26T00:09:48.713Z,91.41
2022-08-26T00:12:19.357Z,92.25
2022-08-26T00:15:02.245Z,92.67
2022-08-26T00:17:31.516Z,93.08
2022-08-26T00:20:00.825Z,93.47
2022-08-26T00:22:30.137Z,94.09
2022-08-26T00:24:59.383Z,94.42
2022-08-26T00:27:28.548Z,94.73
2022-08-26T00:29:57.792Z,95.37
2022-08-26T00:32:28.629Z,95.65
2022-08-26T00:34:57.907Z,95.92
2022-08-26T00:37:36.505Z,95.85
2022-08-26T00:40:07.311Z,96.26
2022-08-26T00:42:36.525Z,96.26
2022-08-26T00:45:11.585Z,96.09
2022-08-26T00:47:47.755Z,96.56
2022-08-26T00:50:20.382Z,96.76
2022-08-26T00:52:50.895Z,96.89
2022-08-26T00:55:23.164Z,96.80
2022-08-26T00:57:53.419Z,97.04
2022-08-26T01:00:26.665Z,97.04
2022-08-26T01:02:58.026Z,97.04
2022-08-26T01:05:27.387Z,97.41
2022-08-26T01:07:56.718Z,97.40
2022-08-26T01:10:30.185Z,97.50
2022-08-26T01:13:02.894Z,97.78
2022-08-26T01:15:36.656Z,97.96
2022-08-26T01:18:09.369Z,98.03
2022-08-26T01:20:47.320Z,98.10
2022-08-26T01:23:18.789Z,98.62
2022-08-26T01:25:56.832Z,98.31
2022-08-26T01:28:30.943Z,98.61
2022-08-26T01:31:01.526Z,98.69
2022-08-26T01:33:42.109Z,98.94
2022-08-26T01:36:13.159Z,98.92
2022-08-26T01:38:44.838Z,98.88
2022-08-26T01:41:19.702Z,99.23
2022-08-26T01:43:56.342Z,98.95
2022-08-26T01:46:29.767Z,99.15
2022-08-26T01:49:03.237Z,99.59
2022-08-26T01:51:38.628Z,99.97
2022-08-26T01:54:12.101Z,99.98
2022-08-26T01:56:43.548Z,99.83
2022-08-26T01:59:16.265Z,99.57
2022-08-26T02:01:46.569Z,99.82
2022-08-26T02:04:21.396Z,99.68
2022-08-26T02:06:51.185Z,99.62
2022-08-26T02:09:22.750Z,99.63
2022-08-26T02:11:54.887Z,99.80
2022-08-26T02:14:26.880Z,99.90
2022-08-26T02:16:56.624Z,99.97
2022-08-26T02:19:31.247Z,99.83
2022-08-26T02:22:03.603Z,100.00
2022-08-26T02:24:49.496Z,99.36
2022-08-26T02:27:21.101Z,99.67
2022-08-26T02:29:54.587Z,99.74
2022-08-26T02:32:23.761Z,99.76
2022-08-26T02:34:53.903Z,99.22
2022-08-26T02:37:23.232Z,99.54
2022-08-26T02:39:53.956Z,99.62
2022-08-26T02:42:23.227Z,99.83
2022-08-26T02:44:52.514Z,99.63
2022-08-26T02:47:21.782Z,99.91
2022-08-26T02:49:54.114Z,100.00
2022-08-26T02:52:23.468Z,100.00
2022-08-26T02:54:54.353Z,100.00
2022-08-26T02:57:24.504Z,100.00
2022-08-26T02:59:53.674Z,100.00
2022-08-26T03:02:23.627Z,100.00
2022-08-26T03:04:57.770Z,100.00
2022-08-26T03:07:31.371Z,99.92
2022-08-26T03:10:08.148Z,99.93
2022-08-26T03:12:38.125Z,99.66
2022-08-26T03:15:17.437Z,99.76
2022-08-26T03:17:52.072Z,99.85
2022-08-26T03:20:21.372Z,99.78
2022-08-26T03:22:51.897Z,100.00
2022-08-26T03:25:23.522Z,100.00
2022-08-26T03:27:53.110Z,100.00
2022-08-26T03:30:44.855Z,100.00
2022-08-26T03:33:16.239Z,100.00
2022-08-26T03:35:50.571Z,100.00
2022-08-26T03:38:21.072Z,100.00
2022-08-26T03:40:52.767Z,100.00
2022-08-26T03:43:22.809Z,100.00
2022-08-26T03:45:53.174Z,100.00
2022-08-26T03:48:23.431Z,100.00
2022-08-26T03:50:52.710Z,100.00
2022-08-26T03:53:22.561Z,100.00
2022-08-26T03:55:53.305Z,100.00
2022-08-26T03:58:24.606Z,99.89
2022-08-26T04:00:55.361Z,99.68
2022-08-26T04:03:38.884Z,99.86
2022-08-26T04:06:09.591Z,99.63
2022-08-26T04:08:38.976Z,99.71
2022-08-26T04:11:09.813Z,99.63
2022-08-26T04:13:39.386Z,99.71
2022-08-26T04:16:09.366Z,99.02
2022-08-26T04:18:42.093Z,98.71
2022-08-26T04:21:16.526Z,97.89
2022-08-26T04:23:47.679Z,97.95
2022-08-26T04:26:20.127Z,98.13
2022-08-26T04:28:50.327Z,97.98
2022-08-26T04:31:20.794Z,97.49
2022-08-26T04:33:51.492Z,96.72
2022-08-26T04:36:20.820Z,96.38
2022-08-26T04:38:51.482Z,96.13
2022-08-26T04:41:22.675Z,96.36
2022-08-26T04:43:52.072Z,96.16
2022-08-26T04:46:24.968Z,95.70
2022-08-26T04:48:56.546Z,95.27
2022-08-26T04:51:28.326Z,95.27
2022-08-26T04:53:58.110Z,94.96
2022-08-26T04:56:30.730Z,94.47
2022-08-26T04:59:01.007Z,93.97
2022-08-26T05:01:31.763Z,94.19
2022-08-26T05:04:02.058Z,94.06
2022-08-26T05:06:36.825Z,94.25
2022-08-26T05:09:06.814Z,93.75
2022-08-26T05:11:38.798Z,93.62
2022-08-26T05:14:08.408Z,93.93
2022-08-26T05:16:40.427Z,93.47
2022-08-26T05:19:10.180Z,93.14
2022-08-26T05:21:40.233Z,91.96
2022-08-26T05:24:09.442Z,92.87
2022-08-26T05:26:41.085Z,92.63
2022-08-26T05:29:10.273Z,91.35
2022-08-26T05:31:40.431Z,89.76
2022-08-26T05:34:11.229Z,91.18
2022-08-26T05:36:40.648Z,91.82
2022-08-26T05:39:10.813Z,91.10
2022-08-26T05:41:44.892Z,92.08
2022-08-26T05:44:16.606Z,91.06
2022-08-26T05:46:45.887Z,90.71
2022-08-26T05:49:16.384Z,89.74
2022-08-26T05:51:47.760Z,90.04
2022-08-26T05:54:21.803Z,89.03
2022-08-26T05:56:53.285Z,89.42
2022-08-26T05:59:25.403Z,90.22
2022-08-26T06:01:56.381Z,89.46
2022-08-26T06:04:28.565Z,89.84
2022-08-26T06:06:58.651Z,90.81
2022-08-26T06:09:28.446Z,89.87
2022-08-26T06:12:02.270Z,88.80
2022-08-26T06:14:31.502Z,88.57
2022-08-26T06:17:01.272Z,86.36
2022-08-26T06:19:32.825Z,85.73
2022-08-26T06:22:23.483Z,86.96
2022-08-26T06:25:18.485Z,87.14
2022-08-26T06:27:50.034Z,88.89
2022-08-26T06:30:19.733Z,89.25
2022-08-26T06:32:55.277Z,89.03
2022-08-26T06:35:24.502Z,89.57
2022-08-26T06:37:53.659Z,89.57
2022-08-26T06:40:23.082Z,88.84
2022-08-26T06:42:53.927Z,88.18
2022-08-26T06:45:23.016Z,87.84
2022-08-26T06:47:53.301Z,88.33
2022-08-26T06:50:23.658Z,88.70
2022-08-26T06:52:54.746Z,88.29
2022-08-26T06:55:27.058Z,86.92
2022-08-26T06:57:58.846Z,85.74
2022-08-26T07:00:28.644Z,86.44
2022-08-26T07:02:57.809Z,87.17
2022-08-26T07:05:27.417Z,88.44
2022-08-26T07:07:58.471Z,88.68
2022-08-26T07:10:28.163Z,88.22
2022-08-26T07:12:58.908Z,88.47
2022-08-26T07:15:31.357Z,88.48
2022-08-26T07:18:00.568Z,88.69
2022-08-26T07:20:30.204Z,87.88
2022-08-26T07:23:00.016Z,88.08
2022-08-26T07:25:31.198Z,88.12
2022-08-26T07:28:01.962Z,87.14
2022-08-26T07:30:32.422Z,87.29
2022-08-26T07:33:01.786Z,87.94
2022-08-26T07:35:31.634Z,87.87
2022-08-26T07:38:02.163Z,87.73
2022-08-26T07:40:31.555Z,87.39
2022-08-26T07:43:02.387Z,86.95
2022-08-26T07:45:31.907Z,87.24
2022-08-26T07:48:01.734Z,85.57
2022-08-26T07:50:49.425Z,84.88
2022-08-26T07:53:20.666Z,83.97
2022-08-26T07:55:50.323Z,84.96
2022-08-26T07:58:21.757Z,83.09
2022-08-26T08:00:51.314Z,82.75
2022-08-26T08:03:23.601Z,82.47
2022-08-26T08:05:52.806Z,84.13
2022-08-26T08:08:27.601Z,84.28
2022-08-26T08:10:58.949Z,83.93
2022-08-26T08:13:30.811Z,84.38
2022-08-26T08:16:01.067Z,83.64
2022-08-26T08:18:30.418Z,84.53
2022-08-26T08:21:21.177Z,84.05
2022-08-26T08:23:53.273Z,83.87
2022-08-26T08:26:22.729Z,84.92
2022-08-26T08:28:55.530Z,83.05
2022-08-26T08:31:55.895Z,83.13
2022-08-26T08:34:15.843Z,83.72
2022-08-26T08:36:48.005Z,81.63
2022-08-26T08:39:17.200Z,83.05
2022-08-26T08:42:06.945Z,82.88
2022-08-26T08:44:42.461Z,81.04
2022-08-26T08:47:19.885Z,79.89
2022-08-26T08:49:51.442Z,80.00
2022-08-26T08:52:29.372Z,79.61
2022-08-26T08:54:58.960Z,79.69
2022-08-26T08:57:40.178Z,79.08
2022-08-26T09:00:18.686Z,79.55
2022-08-26T09:02:55.649Z,80.43
2022-08-26T09:05:26.937Z,80.27
2022-08-26T09:08:01.495Z,78.95
2022-08-26T09:10:37.901Z,76.24
2022-08-26T09:13:13.696Z,75.44
2022-08-26T09:15:54.972Z,75.70
2022-08-26T09:18:49.807Z,75.36
2022-08-26T09:21:20.111Z,77.92
2022-08-26T09:23:51.347Z,72.20
2022-08-26T09:26:27.171Z,72.82
2022-08-26T09:29:01.010Z,71.43
2022-08-26T09:31:35.334Z,70.25
2022-08-26T09:34:17.992Z,70.87
2022-08-26T09:36:50.846Z,71.18
2022-08-26T09:39:37.643Z,72.26
2022-08-26T09:42:10.724Z,72.69
2022-08-26T09:44:58.324Z,72.30
2022-08-26T09:47:32.158Z,73.86
2022-08-26T09:50:12.441Z,72.02
2022-08-26T09:52:42.649Z,72.14
2022-08-26T09:55:16.711Z,71.75
2022-08-26T09:57:51.847Z,71.40
2022-08-26T10:00:31.408Z,71.77
2022-08-26T10:03:04.318Z,72.37
2022-08-26T10:05:41.085Z,72.47
2022-08-26T10:08:24.302Z,71.77
2022-08-26T10:10:55.782Z,71.88
2022-08-26T10:13:31.771Z,71.80
2022-08-26T10:16:13.611Z,71.72
2022-08-26T10:18:49.374Z,71.61
2022-08-26T10:21:26.643Z,72.24
2022-08-26T10:23:59.695Z,71.85
2022-08-26T10:26:40.831Z,72.03
2022-08-26T10:29:15.506Z,71.60
2022-08-26T10:31:51.432Z,71.58
2022-08-26T10:34:22.683Z,71.73
2022-08-26T10:37:15.779Z,71.56
2022-08-26T10:39:53.030Z,71.19
2022-08-26T10:42:35.627Z,70.89
2022-08-26T10:45:15.071Z,70.57
2022-08-26T10:47:52.065Z,70.88
2022-08-26T10:50:26.771Z,71.24
2022-08-26T10:53:03.986Z,71.32
2022-08-26T10:55:40.819Z,71.43
2022-08-26T10:58:27.558Z,71.16
2022-08-26T11:01:23.127Z,70.75
2022-08-26T11:04:00.849Z,70.55
2022-08-26T11:06:33.306Z,69.79
2022-08-26T11:09:07.786Z,69.51
2022-08-26T11:11:54.682Z,68.90
2022-08-26T11:14:46.168Z,68.85
2022-08-26T11:18:00.125Z,68.93
2022-08-26T11:20:36.425Z,68.89
2022-08-26T11:23:50.465Z,69.36
2022-08-26T11:26:36.347Z,68.68
2022-08-26T11:29:13.856Z,67.89
2022-08-26T11:32:00.520Z,67.53
2022-08-26T11:34:53.601Z,67.29
2022-08-26T11:37:28.227Z,66.80
2022-08-26T11:40:02.858Z,66.30
2022-08-26T11:42:38.664Z,65.55
2022-08-26T11:45:20.183Z,64.73
2022-08-26T11:47:49.664Z,64.58
2022-08-26T11:50:23.826Z,63.67
2022-08-26T11:52:56.439Z,64.49
2022-08-26T11:55:28.160Z,63.96
2022-08-26T11:58:08.354Z,63.61
2022-08-26T12:01:01.881Z,63.71
2022-08-26T12:03:54.360Z,63.87
2022-08-26T12:06:30.488Z,64.34
2022-08-26T12:09:02.017Z,64.28
2022-08-26T12:11:35.548Z,64.09
2022-08-26T12:14:10.060Z,64.29
2022-08-26T12:16:41.840Z,63.79
2022-08-26T12:19:25.300Z,63.17
2022-08-26T12:22:00.837Z,62.65
2022-08-26T12:24:31.335Z,62.69
2022-08-26T12:27:18.881Z,62.79
2022-08-26T12:30:09.395Z,63.18
2022-08-26T12:32:57.616Z,63.59
2022-08-26T12:35:29.609Z,62.97
2022-08-26T12:37:59.583Z,62.76
2022-08-26T12:40:41.374Z,61.96
2022-08-26T12:43:16.406Z,61.86
2022-08-26T12:45:57.227Z,62.63
2022-08-26T12:48:29.416Z,62.70
2022-08-26T12:51:06.987Z,62.39
2022-08-26T12:53:43.550Z,61.90
2022-08-26T12:56:39.408Z,61.67
2022-08-26T12:59:23.592Z,61.61
2022-08-26T13:01:54.396Z,61.80
2022-08-26T13:04:39.048Z,62.76
2022-08-26T13:07:17.033Z,64.11
2022-08-26T13:09:46.270Z,65.11
2022-08-26T13:12:26.123Z,65.55
2022-08-26T13:15:00.827Z,66.31
2022-08-26T13:17:31.176Z,66.77
2022-08-26T13:20:04.146Z,67.34
2022-08-26T13:22:34.022Z,67.69
2022-08-26T13:25:03.373Z,68.14
2022-08-26T13:27:33.141Z,68.47
2022-08-26T13:30:04.328Z,68.98
2022-08-26T13:32:33.756Z,69.23
2022-08-26T13:35:03.935Z,69.60
2022-08-26T13:37:35.697Z,69.84
2022-08-26T13:40:06.868Z,70.35
2022-08-26T13:42:36.179Z,70.68
2022-08-26T13:45:07.827Z,71.00
2022-08-26T13:47:38.230Z,71.16
2022-08-26T13:50:08.386Z,71.72
2022-08-26T13:52:37.800Z,72.06
2022-08-26T13:55:08.472Z,72.44
2022-08-26T13:57:37.820Z,73.12
2022-08-26T14:00:11.241Z,73.48
2022-08-26T14:02:40.553Z,73.49
2022-08-26T14:05:10.943Z,73.84
2022-08-26T14:07:40.104Z,74.03
2022-08-26T14:10:10.066Z,74.38
2022-08-26T14:12:42.626Z,74.66
2022-08-26T14:15:16.787Z,74.78
2022-08-26T14:17:47.060Z,75.06
2022-08-26T14:20:18.838Z,75.30
2022-08-26T14:23:12.693Z,75.82
2022-08-26T14:25:37.163Z,75.57
2022-08-26T14:28:06.792Z,75.96
2022-08-26T14:30:38.862Z,76.27
2022-08-26T14:33:08.289Z,76.50
2022-08-26T14:35:37.590Z,76.54
2022-08-26T14:38:06.770Z,76.86
2022-08-26T14:40:37.552Z,77.28
2022-08-26T14:43:10.066Z,77.26
2022-08-26T14:45:44.108Z,77.25
2022-08-26T14:48:13.781Z,77.56
2022-08-26T14:50:42.945Z,77.77
2022-08-26T14:53:29.110Z,78.29
2022-08-26T14:55:58.437Z,78.08
2022-08-26T14:58:33.783Z,78.38
2022-08-26T15:01:07.248Z,78.93
2022-08-26T15:03:36.390Z,78.92
2022-08-26T15:06:05.958Z,79.07
2022-08-26T15:08:37.068Z,79.30
2022-08-26T15:11:06.524Z,79.70
2022-08-26T15:13:36.075Z,79.85
2022-08-26T15:16:07.258Z,80.02
2022-08-26T15:18:36.504Z,80.41
2022-08-26T15:21:07.662Z,80.10
2022-08-26T15:23:36.907Z,80.30
2022-08-26T15:26:09.239Z,80.68
2022-08-26T15:28:39.297Z,80.86
2022-08-26T15:31:10.136Z,81.03
2022-08-26T15:33:40.858Z,81.11
2022-08-26T15:36:11.641Z,81.16
2022-08-26T15:38:43.075Z,81.34
2022-08-26T15:41:14.707Z,81.12
2022-08-26T15:43:43.845Z,81.35
2022-08-26T15:46:15.052Z,81.53
2022-08-26T15:48:44.907Z,81.72
2022-08-26T15:51:23.712Z,82.00
2022-08-26T15:53:55.867Z,81.85
2022-08-26T15:56:26.586Z,82.13
2022-08-26T15:58:56.678Z,81.79
2022-08-26T16:01:28.304Z,82.37
2022-08-26T16:03:58.254Z,82.36
2022-08-26T16:06:30.831Z,82.60
2022-08-26T16:09:00.168Z,82.79
2022-08-26T16:11:29.649Z,83.21
2022-08-26T16:13:58.883Z,83.30
2022-08-26T16:16:31.333Z,83.32
2022-08-26T16:19:04.251Z,83.27
2022-08-26T16:21:36.938Z,83.26
2022-08-26T16:24:07.362Z,83.17
2022-08-26T16:26:38.654Z,83.41
2022-08-26T16:29:12.757Z,83.63
2022-08-26T16:31:43.456Z,83.51
2022-08-26T16:34:13.070Z,83.60
2022-08-26T16:36:42.443Z,83.55
2022-08-26T16:39:13.523Z,83.61
2022-08-26T16:41:42.774Z,83.70
2022-08-26T16:44:12.437Z,83.91
2022-08-26T16:50:47.763Z,84.12
2022-08-26T16:53:58.618Z,84.16
2022-08-26T16:56:34.409Z,83.71
2022-08-26T16:59:06.823Z,84.12
2022-08-26T17:01:36.236Z,84.22
2022-08-26T17:04:07.204Z,84.30
2022-08-26T17:06:36.498Z,84.22
2022-08-26T17:09:06.100Z,84.51
2022-08-26T17:11:35.881Z,84.52
2022-08-26T17:14:05.142Z,84.92
2022-08-26T17:16:34.403Z,85.13
2022-08-26T17:19:04.998Z,85.25
2022-08-26T17:21:37.922Z,85.10
2022-08-26T17:24:08.209Z,85.35
2022-08-26T17:26:38.186Z,85.42
2022-08-26T17:29:08.805Z,85.51
2022-08-26T17:31:37.982Z,85.48
2022-08-26T17:34:07.768Z,85.72
2022-08-26T17:36:38.469Z,85.47
2022-08-26T17:39:07.603Z,85.43
2022-08-26T17:41:36.747Z,85.53
2022-08-26T17:44:06.996Z,85.60
2022-08-26T17:46:38.477Z,85.47
2022-08-26T17:49:08.185Z,85.74
2022-08-26T17:51:38.849Z,85.75
2022-08-26T17:54:07.997Z,85.84
2022-08-26T17:56:37.135Z,85.71
2022-08-26T17:59:06.420Z,86.00
2022-08-26T18:01:36.707Z,85.89
2022-08-26T18:04:06.488Z,85.80
2022-08-26T18:06:35.797Z,86.14
2022-08-26T18:09:06.750Z,86.46
2022-08-26T18:11:36.014Z,86.08
2022-08-26T18:14:05.567Z,86.62
2022-08-26T18:16:38.730Z,86.66
2022-08-26T18:19:08.506Z,86.78
2022-08-26T18:21:38.100Z,86.62
2022-08-26T18:24:13.825Z,86.67
2022-08-26T18:26:49.237Z,86.76
2022-08-26T18:29:20.173Z,86.66
2022-08-26T18:31:50.265Z,86.90
2022-08-26T18:34:20.229Z,86.77
2022-08-26T18:36:49.681Z,87.07
2022-08-26T18:39:23.451Z,86.99
2022-08-26T18:41:54.285Z,87.17
2022-08-26T18:44:24.949Z,87.20
2022-08-26T18:46:54.430Z,87.20
2022-08-26T18:49:23.957Z,87.23
2022-08-26T18:51:53.420Z,86.88
2022-08-26T18:54:24.284Z,87.41
2022-08-26T18:56:53.586Z,87.25
2022-08-26T18:59:29.482Z,87.36
2022-08-26T19:01:59.913Z,87.21
2022-08-26T19:04:29.360Z,87.26
2022-08-26T19:06:58.614Z,87.14
2022-08-26T19:09:29.307Z,87.36
2022-08-26T19:11:58.512Z,87.55
2022-08-26T19:14:27.907Z,87.29
2022-08-26T19:16:57.165Z,87.45
2022-08-26T19:19:26.537Z,87.47
2022-08-26T19:21:55.737Z,87.43
2022-08-26T19:24:27.482Z,87.49
2022-08-26T19:27:01.646Z,87.48
2022-08-26T19:29:33.255Z,87.40
2022-08-26T19:32:03.502Z,87.64
2022-08-26T19:34:32.998Z,87.81
2022-08-26T19:37:02.931Z,87.62
2022-08-26T19:39:32.252Z,87.45
2022-08-26T19:42:02.959Z,87.77
2022-08-26T19:44:48.922Z,87.49
2022-08-26T19:47:18.106Z,87.25
2022-08-26T19:49:47.538Z,87.40
2022-08-26T19:52:16.700Z,87.29
2022-08-26T19:54:46.229Z,87.43
2022-08-26T19:57:17.382Z,87.39
2022-08-26T19:59:46.950Z,87.37
2022-08-26T20:02:17.031Z,87.32
2022-08-26T20:04:46.259Z,87.48
2022-08-26T20:07:18.940Z,87.46
2022-08-26T20:09:49.416Z,87.42
2022-08-26T20:12:20.932Z,87.25
2022-08-26T20:14:50.064Z,87.21
2022-08-26T20:17:19.244Z,87.17
2022-08-26T20:20:05.828Z,87.19
2022-08-26T20:22:43.972Z,87.21
2022-08-26T20:25:13.581Z,87.39
2022-08-26T20:27:44.238Z,87.13
2022-08-26T20:30:14.502Z,87.23
2022-08-26T20:32:44.462Z,87.24
2022-08-26T20:35:15.875Z,87.11
2022-08-26T20:37:45.191Z,87.30
2022-08-26T20:40:16.299Z,87.34
2022-08-26T20:42:47.062Z,87.72
2022-08-26T20:45:16.323Z,87.73
2022-08-26T20:47:45.499Z,87.95
2022-08-26T20:50:14.737Z,87.77
2022-08-26T20:52:43.958Z,87.90
2022-08-26T20:55:13.449Z,87.91
2022-08-26T20:57:43.835Z,87.94
2022-08-26T21:00:18.520Z,87.98
2022-08-26T21:02:51.194Z,88.10
2022-08-26T21:05:21.143Z,87.82
2022-08-26T21:07:51.847Z,88.09
2022-08-26T21:10:22.021Z,87.75
2022-08-26T21:12:52.750Z,88.03
2022-08-26T21:15:23.453Z,87.91
2022-08-26T21:17:52.643Z,87.95
2022-08-26T21:20:21.884Z,87.88
2022-08-26T21:22:51.026Z,87.90
2022-08-26T21:25:20.988Z,88.21
2022-08-26T21:27:50.167Z,88.28
2022-08-26T21:30:19.401Z,88.23
2022-08-26T21:32:50.131Z,88.65
2022-08-26T21:35:19.797Z,88.38
2022-08-26T21:37:48.948Z,88.45
2022-08-26T21:40:18.389Z,88.70
2022-08-26T21:42:48.026Z,88.65
2022-08-26T21:45:18.732Z,88.32
2022-08-26T21:47:49.513Z,88.62
2022-08-26T21:50:18.801Z,88.83
2022-08-26T21:52:47.953Z,88.57
2022-08-26T21:55:17.193Z,88.67
2022-08-26T21:57:46.358Z,88.72
2022-08-26T22:00:17.348Z,88.56
2022-08-26T22:02:46.530Z,88.79
2022-08-26T22:05:17.358Z,88.42
2022-08-26T22:07:46.652Z,88.94
2022-08-26T22:10:15.933Z,89.15
2022-08-26T22:12:45.035Z,89.26
2022-08-26T22:15:14.904Z,89.27
2022-08-26T22:17:44.079Z,89.04
2022-08-26T22:20:16.557Z,88.99
2022-08-26T22:22:47.512Z,88.97
2022-08-26T22:25:16.692Z,89.10
2022-08-26T22:27:45.896Z,89.00
2022-08-26T22:30:15.642Z,88.80
2022-08-26T22:32:46.111Z,88.60
2022-08-26T22:35:28.716Z,88.71
2022-08-26T22:38:00.813Z,88.62
2022-08-26T22:40:30.158Z,88.64
2022-08-26T22:43:00.453Z,88.90
2022-08-26T22:45:31.781Z,88.90
2022-08-26T22:48:02.071Z,89.24
2022-08-26T22:50:31.212Z,88.86
2022-08-26T22:53:01.802Z,88.95
2022-08-26T22:55:31.116Z,88.82
2022-08-26T22:58:00.558Z,89.00
2022-08-26T23:00:32.018Z,89.36
2022-08-26T23:03:01.855Z,89.42
2022-08-26T23:05:31.535Z,89.36
2022-08-26T23:08:02.247Z,89.21
2022-08-26T23:10:31.412Z,89.06
2022-08-26T23:13:01.105Z,89.29
2022-08-26T23:15:30.320Z,89.09
2022-08-26T23:17:59.674Z,89.30
2022-08-26T23:20:30.565Z,89.32
2022-08-26T23:23:01.830Z,89.06
2022-08-26T23:25:32.805Z,89.35
2022-08-26T23:28:03.122Z,89.27
2022-08-26T23:30:34.296Z,89.37
2022-08-26T23:33:03.459Z,89.46
2022-08-26T23:35:31.616Z,89.48
2022-08-26T23:38:03.972Z,89.49
2022-08-26T23:40:36.644Z,89.19
2022-08-26T23:43:08.440Z,89.18
2022-08-26T23:45:38.065Z,89.18
2022-08-26T23:48:07.712Z,89.19
2022-08-26T23:50:56.117Z,88.95
2022-08-26T23:53:26.886Z,89.12
2022-08-26T23:55:56.228Z,89.21
2022-08-26T23:58:25.543Z,89.16
